sensor_id;sensor_type;location;lat;lon;timestamp;pressure;altitude;pressure_sealevel;temperature;humidity
12987;BME280;58897;51.960;5.582;2023-03-13T00:00:59;99988.09;;;8.31;100.00
12987;BME280;58897;51.960;5.582;2023-03-13T00:03:26;99975.63;;;8.30;100.00
12987;BME280;58897;51.960;5.582;2023-03-13T00:05:57;99970.91;;;8.32;100.00
12987;BME280;58897;51.960;5.582;2023-03-13T00:08:25;99969.06;;;8.33;100.00
12987;BME280;58897;51.960;5.582;2023-03-13T00:10:53;99967.22;;;8.41;100.00
12987;BME280;58897;51.960;5.582;2023-03-13T00:13:20;99956.28;;;8.43;100.00
12987;BME280;58897;51.960;5.582;2023-03-13T00:15:47;99954.28;;;8.37;100.00
12987;BME280;58897;51.960;5.582;2023-03-13T00:18:13;99946.03;;;8.30;100.00
12987;BME280;58897;51.960;5.582;2023-03-13T00:20:40;99939.16;;;8.28;100.00
12987;BME280;58897;51.960;5.582;2023-03-13T00:23:06;99953.25;;;8.30;100.00
12987;BME280;58897;51.960;5.582;2023-03-13T00:25:33;99938.63;;;8.32;100.00
12987;BME280;58897;51.960;5.582;2023-03-13T00:27:59;99930.56;;;8.32;100.00
12987;BME280;58897;51.960;5.582;2023-03-13T00:30:26;99934.63;;;8.28;100.00
12987;BME280;58897;51.960;5.582;2023-03-13T00:32:52;99929.91;;;8.30;100.00
12987;BME280;58897;51.960;5.582;2023-03-13T00:35:19;99924.16;;;8.25;100.00
12987;BME280;58897;51.960;5.582;2023-03-13T00:37:45;99908.53;;;8.21;100.00
12987;BME280;58897;51.960;5.582;2023-03-13T00:40:12;99912.41;;;8.18;100.00
12987;BME280;58897;51.960;5.582;2023-03-13T00:42:39;99906.31;;;8.16;100.00
12987;BME280;58897;51.960;5.582;2023-03-13T00:45:05;99897.25;;;8.17;100.00
12987;BME280;58897;51.960;5.582;2023-03-13T00:47:32;99898.44;;;8.15;100.00
12987;BME280;58897;51.960;5.582;2023-03-13T00:49:59;99884.00;;;8.16;100.00
12987;BME280;58897;51.960;5.582;2023-03-13T00:52:25;99877.59;;;8.17;100.00
12987;BME280;58897;51.960;5.582;2023-03-13T00:54:53;99869.50;;;8.17;100.00
12987;BME280;58897;51.960;5.582;2023-03-13T00:57:20;99856.91;;;8.17;100.00
12987;BME280;58897;51.960;5.582;2023-03-13T00:59:46;99860.59;;;8.16;100.00
12987;BME280;58897;51.960;5.582;2023-03-13T01:02:13;99846.66;;;8.13;100.00
12987;BME280;58897;51.960;5.582;2023-03-13T01:04:39;99846.34;;;8.16;100.00
12987;BME280;58897;51.960;5.582;2023-03-13T01:07:06;99838.25;;;8.16;100.00
12987;BME280;58897;51.960;5.582;2023-03-13T01:09:32;99832.69;;;8.17;100.00
12987;BME280;58897;51.960;5.582;2023-03-13T01:11:59;99815.88;;;8.23;100.00
12987;BME280;58897;51.960;5.582;2023-03-13T01:14:25;99821.41;;;8.22;100.00
12987;BME280;58897;51.960;5.582;2023-03-13T01:16:52;99809.84;;;8.21;100.00
12987;BME280;58897;51.960;5.582;2023-03-13T01:19:18;99808.66;;;8.24;100.00
12987;BME280;58897;51.960;5.582;2023-03-13T01:21:45;99804.63;;;8.28;100.00
12987;BME280;58897;51.960;5.582;2023-03-13T01:24:12;99794.69;;;8.28;100.00
12987;BME280;58897;51.960;5.582;2023-03-13T01:26:39;99791.66;;;8.31;100.00
12987;BME280;58897;51.960;5.582;2023-03-13T01:29:05;99776.53;;;8.30;100.00
12987;BME280;58897;51.960;5.582;2023-03-13T01:31:34;99775.34;;;8.33;100.00
12987;BME280;58897;51.960;5.582;2023-03-13T01:34:03;99774.81;;;8.37;100.00
12987;BME280;58897;51.960;5.582;2023-03-13T01:36:30;99767.41;;;8.39;100.00
12987;BME280;58897;51.960;5.582;2023-03-13T01:38:59;99763.69;;;8.40;100.00
12987;BME280;58897;51.960;5.582;2023-03-13T01:41:28;99750.75;;;8.44;100.00
12987;BME280;58897;51.960;5.582;2023-03-13T01:43:55;99740.63;;;8.46;100.00
12987;BME280;58897;51.960;5.582;2023-03-13T01:46:27;99748.16;;;8.50;100.00
12987;BME280;58897;51.960;5.582;2023-03-13T01:49:36;99732.69;;;8.52;100.00
12987;BME280;58897;51.960;5.582;2023-03-13T01:52:15;99726.94;;;8.55;100.00
12987;BME280;58897;51.960;5.582;2023-03-13T01:57:26;99708.25;;;8.62;100.00
12987;BME280;58897;51.960;5.582;2023-03-13T02:00:07;99714.13;;;8.65;100.00
12987;BME280;58897;51.960;5.582;2023-03-13T02:02:37;99704.16;;;8.66;100.00
12987;BME280;58897;51.960;5.582;2023-03-13T02:05:06;99689.69;;;8.67;100.00
12987;BME280;58897;51.960;5.582;2023-03-13T02:07:47;99688.16;;;8.73;100.00
12987;BME280;58897;51.960;5.582;2023-03-13T02:10:16;99703.44;;;8.72;100.00
12987;BME280;58897;51.960;5.582;2023-03-13T02:12:43;99680.00;;;8.81;100.00
12987;BME280;58897;51.960;5.582;2023-03-13T02:15:19;99669.41;;;8.79;100.00
12987;BME280;58897;51.960;5.582;2023-03-13T02:17:47;99658.47;;;8.81;100.00
12987;BME280;58897;51.960;5.582;2023-03-13T02:20:17;99655.03;;;8.87;100.00
12987;BME280;58897;51.960;5.582;2023-03-13T02:30:37;99619.94;;;8.95;100.00
12987;BME280;58897;51.960;5.582;2023-03-13T02:33:05;99618.59;;;8.99;100.00
12987;BME280;58897;51.960;5.582;2023-03-13T02:35:31;99604.56;;;9.03;100.00
12987;BME280;58897;51.960;5.582;2023-03-13T02:38:01;99605.41;;;9.04;100.00
12987;BME280;58897;51.960;5.582;2023-03-13T02:40:33;99601.03;;;9.03;100.00
12987;BME280;58897;51.960;5.582;2023-03-13T02:43:04;99596.56;;;9.10;100.00
12987;BME280;58897;51.960;5.582;2023-03-13T02:45:31;99623.25;;;9.19;100.00
12987;BME280;58897;51.960;5.582;2023-03-13T02:47:58;99597.16;;;9.20;100.00
12987;BME280;58897;51.960;5.582;2023-03-13T02:50:24;99592.41;;;9.22;100.00
12987;BME280;58897;51.960;5.582;2023-03-13T02:52:54;99590.38;;;9.24;100.00
12987;BME280;58897;51.960;5.582;2023-03-13T02:55:29;99592.78;;;9.19;100.00
12987;BME280;58897;51.960;5.582;2023-03-13T02:57:56;99584.91;;;9.32;100.00
12987;BME280;58897;51.960;5.582;2023-03-13T03:00:23;99594.84;;;9.31;100.00
12987;BME280;58897;51.960;5.582;2023-03-13T03:02:53;99600.69;;;9.35;100.00
12987;BME280;58897;51.960;5.582;2023-03-13T03:05:20;99592.69;;;9.42;100.00
12987;BME280;58897;51.960;5.582;2023-03-13T03:07:50;99595.22;;;9.43;100.00
12987;BME280;58897;51.960;5.582;2023-03-13T03:10:17;99604.97;;;9.44;100.00
12987;BME280;58897;51.960;5.582;2023-03-13T03:12:44;99589.75;;;9.51;100.00
12987;BME280;58897;51.960;5.582;2023-03-13T03:15:10;99595.94;;;9.52;100.00
12987;BME280;58897;51.960;5.582;2023-03-13T03:17:37;99586.47;;;9.56;100.00
12987;BME280;58897;51.960;5.582;2023-03-13T03:20:04;99590.28;;;9.61;100.00
12987;BME280;58897;51.960;5.582;2023-03-13T03:22:38;99590.72;;;9.65;100.00
12987;BME280;58897;51.960;5.582;2023-03-13T03:25:07;99590.00;;;9.71;100.00
12987;BME280;58897;51.960;5.582;2023-03-13T03:27:34;99580.69;;;9.73;100.00
12987;BME280;58897;51.960;5.582;2023-03-13T03:30:03;99588.09;;;9.86;100.00
12987;BME280;58897;51.960;5.582;2023-03-13T03:32:31;99579.16;;;9.85;100.00
12987;BME280;58897;51.960;5.582;2023-03-13T03:34:57;99581.59;;;9.95;100.00
12987;BME280;58897;51.960;5.582;2023-03-13T03:37:24;99584.47;;;9.93;100.00
12987;BME280;58897;51.960;5.582;2023-03-13T03:39:50;99571.06;;;10.00;100.00
12987;BME280;58897;51.960;5.582;2023-03-13T03:42:17;99581.00;;;10.00;100.00
12987;BME280;58897;51.960;5.582;2023-03-13T03:44:43;99598.03;;;10.00;100.00
12987;BME280;58897;51.960;5.582;2023-03-13T03:47:10;99573.44;;;10.10;100.00
12987;BME280;58897;51.960;5.582;2023-03-13T03:49:36;99581.00;;;10.14;100.00
12987;BME280;58897;51.960;5.582;2023-03-13T03:52:03;99577.09;;;10.02;100.00
12987;BME280;58897;51.960;5.582;2023-03-13T03:54:30;99581.09;;;10.06;100.00
12987;BME280;58897;51.960;5.582;2023-03-13T03:56:56;99570.31;;;10.06;100.00
12987;BME280;58897;51.960;5.582;2023-03-13T03:59:23;99562.66;;;10.10;100.00
12987;BME280;58897;51.960;5.582;2023-03-13T04:01:49;99561.81;;;10.09;100.00
12987;BME280;58897;51.960;5.582;2023-03-13T04:04:16;99551.13;;;10.16;100.00
12987;BME280;58897;51.960;5.582;2023-03-13T04:06:42;99556.53;;;10.16;100.00
12987;BME280;58897;51.960;5.582;2023-03-13T04:09:09;99548.44;;;10.16;100.00
12987;BME280;58897;51.960;5.582;2023-03-13T04:11:35;99547.69;;;10.22;100.00
12987;BME280;58897;51.960;5.582;2023-03-13T04:14:01;99547.47;;;10.23;100.00
12987;BME280;58897;51.960;5.582;2023-03-13T04:16:28;99549.97;;;10.25;100.00
12987;BME280;58897;51.960;5.582;2023-03-13T04:18:55;99536.31;;;10.26;100.00
12987;BME280;58897;51.960;5.582;2023-03-13T04:21:21;99539.88;;;10.33;100.00
12987;BME280;58897;51.960;5.582;2023-03-13T04:23:48;99527.03;;;10.35;100.00
12987;BME280;58897;51.960;5.582;2023-03-13T04:26:14;99536.59;;;10.38;100.00
12987;BME280;58897;51.960;5.582;2023-03-13T04:28:41;99537.69;;;10.43;100.00
12987;BME280;58897;51.960;5.582;2023-03-13T04:31:07;99531.47;;;10.43;100.00
12987;BME280;58897;51.960;5.582;2023-03-13T04:33:34;99526.47;;;10.40;100.00
12987;BME280;58897;51.960;5.582;2023-03-13T04:36:02;99514.88;;;10.46;100.00
12987;BME280;58897;51.960;5.582;2023-03-13T04:38:29;99509.69;;;10.44;100.00
12987;BME280;58897;51.960;5.582;2023-03-13T04:40:55;99499.47;;;10.40;100.00
12987;BME280;58897;51.960;5.582;2023-03-13T04:43:22;99495.13;;;10.45;100.00
12987;BME280;58897;51.960;5.582;2023-03-13T04:45:51;99483.94;;;10.48;100.00
12987;BME280;58897;51.960;5.582;2023-03-13T04:48:20;99480.22;;;10.49;100.00
12987;BME280;58897;51.960;5.582;2023-03-13T04:50:47;99476.69;;;10.49;100.00
12987;BME280;58897;51.960;5.582;2023-03-13T04:53:14;99479.72;;;10.61;100.00
12987;BME280;58897;51.960;5.582;2023-03-13T04:55:40;99479.47;;;10.56;100.00
12987;BME280;58897;51.960;5.582;2023-03-13T04:58:07;99484.72;;;10.64;100.00
12987;BME280;58897;51.960;5.582;2023-03-13T05:00:34;99470.00;;;10.66;100.00
12987;BME280;58897;51.960;5.582;2023-03-13T05:03:00;99491.25;;;10.76;100.00
12987;BME280;58897;51.960;5.582;2023-03-13T05:05:27;99476.44;;;10.72;100.00
12987;BME280;58897;51.960;5.582;2023-03-13T05:07:53;99467.38;;;10.79;100.00
12987;BME280;58897;51.960;5.582;2023-03-13T05:10:20;99479.00;;;10.80;100.00
12987;BME280;58897;51.960;5.582;2023-03-13T05:12:46;99475.91;;;10.83;100.00
12987;BME280;58897;51.960;5.582;2023-03-13T05:15:13;99469.09;;;10.87;100.00
12987;BME280;58897;51.960;5.582;2023-03-13T05:17:39;99478.22;;;10.86;100.00
12987;BME280;58897;51.960;5.582;2023-03-13T05:20:07;99478.84;;;10.88;100.00
12987;BME280;58897;51.960;5.582;2023-03-13T05:22:37;99472.19;;;10.84;100.00
12987;BME280;58897;51.960;5.582;2023-03-13T05:25:04;99474.72;;;10.92;100.00
12987;BME280;58897;51.960;5.582;2023-03-13T05:27:31;99485.38;;;11.00;100.00
12987;BME280;58897;51.960;5.582;2023-03-13T05:29:57;99484.78;;;11.04;100.00
12987;BME280;58897;51.960;5.582;2023-03-13T05:32:24;99475.84;;;11.04;100.00
12987;BME280;58897;51.960;5.582;2023-03-13T05:34:50;99476.06;;;11.09;100.00
12987;BME280;58897;51.960;5.582;2023-03-13T05:37:17;99475.69;;;11.12;100.00
12987;BME280;58897;51.960;5.582;2023-03-13T05:39:43;99478.97;;;11.07;100.00
12987;BME280;58897;51.960;5.582;2023-03-13T05:42:10;99469.34;;;10.98;100.00
12987;BME280;58897;51.960;5.582;2023-03-13T05:44:36;99471.53;;;11.16;100.00
12987;BME280;58897;51.960;5.582;2023-03-13T05:47:03;99485.63;;;11.05;100.00
12987;BME280;58897;51.960;5.582;2023-03-13T05:49:30;99471.06;;;11.06;100.00
12987;BME280;58897;51.960;5.582;2023-03-13T05:51:56;99473.41;;;11.15;100.00
12987;BME280;58897;51.960;5.582;2023-03-13T05:54:23;99475.88;;;11.10;100.00
12987;BME280;58897;51.960;5.582;2023-03-13T05:56:49;99478.16;;;11.13;100.00
12987;BME280;58897;51.960;5.582;2023-03-13T05:59:17;99483.41;;;11.22;100.00
12987;BME280;58897;51.960;5.582;2023-03-13T06:01:43;99480.72;;;11.22;100.00
12987;BME280;58897;51.960;5.582;2023-03-13T06:04:10;99475.06;;;11.16;100.00
12987;BME280;58897;51.960;5.582;2023-03-13T06:06:37;99483.81;;;11.18;100.00
12987;BME280;58897;51.960;5.582;2023-03-13T06:09:03;99468.63;;;11.18;100.00
12987;BME280;58897;51.960;5.582;2023-03-13T06:11:31;99456.59;;;11.27;100.00
12987;BME280;58897;51.960;5.582;2023-03-13T06:13:58;99450.78;;;11.23;100.00
12987;BME280;58897;51.960;5.582;2023-03-13T06:16:24;99455.75;;;11.20;100.00
12987;BME280;58897;51.960;5.582;2023-03-13T06:18:51;99435.16;;;11.18;100.00
12987;BME280;58897;51.960;5.582;2023-03-13T06:21:17;99432.72;;;11.24;100.00
12987;BME280;58897;51.960;5.582;2023-03-13T06:23:44;99430.66;;;11.32;100.00
12987;BME280;58897;51.960;5.582;2023-03-13T06:26:10;99433.97;;;11.34;100.00
12987;BME280;58897;51.960;5.582;2023-03-13T06:28:37;99427.16;;;11.38;100.00
12987;BME280;58897;51.960;5.582;2023-03-13T06:31:05;99422.13;;;11.35;100.00
12987;BME280;58897;51.960;5.582;2023-03-13T06:33:33;99412.59;;;11.39;100.00
12987;BME280;58897;51.960;5.582;2023-03-13T06:36:02;99432.59;;;11.51;100.00
12987;BME280;58897;51.960;5.582;2023-03-13T06:38:29;99416.38;;;11.51;100.00
12987;BME280;58897;51.960;5.582;2023-03-13T06:40:56;99389.28;;;11.45;100.00
12987;BME280;58897;51.960;5.582;2023-03-13T06:43:22;99398.09;;;11.60;100.00
12987;BME280;58897;51.960;5.582;2023-03-13T06:45:49;99396.41;;;11.65;100.00
12987;BME280;58897;51.960;5.582;2023-03-13T06:48:17;99405.56;;;11.58;100.00
12987;BME280;58897;51.960;5.582;2023-03-13T06:50:44;99423.25;;;11.54;100.00
12987;BME280;58897;51.960;5.582;2023-03-13T06:53:18;99411.63;;;11.60;100.00
12987;BME280;58897;51.960;5.582;2023-03-13T06:55:45;99407.19;;;11.52;100.00
12987;BME280;58897;51.960;5.582;2023-03-13T06:58:12;99410.41;;;11.69;100.00
12987;BME280;58897;51.960;5.582;2023-03-13T07:00:56;99407.88;;;11.67;100.00
12987;BME280;58897;51.960;5.582;2023-03-13T07:03:22;99401.91;;;11.72;100.00
12987;BME280;58897;51.960;5.582;2023-03-13T07:05:55;99389.19;;;11.79;100.00
12987;BME280;58897;51.960;5.582;2023-03-13T07:08:22;99394.44;;;11.81;100.00
12987;BME280;58897;51.960;5.582;2023-03-13T07:10:52;99391.28;;;11.70;100.00
12987;BME280;58897;51.960;5.582;2023-03-13T07:13:19;99396.69;;;11.70;100.00
12987;BME280;58897;51.960;5.582;2023-03-13T07:15:47;99396.41;;;11.65;100.00
12987;BME280;58897;51.960;5.582;2023-03-13T07:18:14;99397.94;;;11.81;100.00
12987;BME280;58897;51.960;5.582;2023-03-13T07:20:40;99401.69;;;11.80;100.00
12987;BME280;58897;51.960;5.582;2023-03-13T07:23:07;99394.63;;;11.86;100.00
12987;BME280;58897;51.960;5.582;2023-03-13T07:25:34;99396.91;;;11.82;100.00
12987;BME280;58897;51.960;5.582;2023-03-13T07:28:00;99393.59;;;11.80;100.00
12987;BME280;58897;51.960;5.582;2023-03-13T07:30:27;99418.97;;;11.79;100.00
12987;BME280;58897;51.960;5.582;2023-03-13T07:32:53;99401.09;;;11.78;100.00
12987;BME280;58897;51.960;5.582;2023-03-13T07:35:20;99407.50;;;11.84;100.00
12987;BME280;58897;51.960;5.582;2023-03-13T07:37:46;99415.00;;;11.75;100.00
12987;BME280;58897;51.960;5.582;2023-03-13T07:40:13;99426.03;;;11.73;100.00
12987;BME280;58897;51.960;5.582;2023-03-13T07:42:40;99419.59;;;11.74;100.00
12987;BME280;58897;51.960;5.582;2023-03-13T07:45:08;99429.72;;;11.66;100.00
12987;BME280;58897;51.960;5.582;2023-03-13T07:47:34;99424.94;;;11.61;100.00
12987;BME280;58897;51.960;5.582;2023-03-13T07:50:02;99426.38;;;11.57;100.00
12987;BME280;58897;51.960;5.582;2023-03-13T07:52:29;99442.78;;;11.56;100.00
12987;BME280;58897;51.960;5.582;2023-03-13T07:54:55;99437.78;;;11.53;100.00
12987;BME280;58897;51.960;5.582;2023-03-13T07:57:22;99440.72;;;11.51;100.00
12987;BME280;58897;51.960;5.582;2023-03-13T07:59:49;99442.78;;;11.56;100.00
12987;BME280;58897;51.960;5.582;2023-03-13T08:02:15;99452.16;;;11.47;100.00
12987;BME280;58897;51.960;5.582;2023-03-13T08:04:42;99440.66;;;11.45;100.00
12987;BME280;58897;51.960;5.582;2023-03-13T08:07:09;99439.66;;;11.46;100.00
12987;BME280;58897;51.960;5.582;2023-03-13T08:09:36;99442.19;;;11.54;100.00
12987;BME280;58897;51.960;5.582;2023-03-13T08:12:03;99431.44;;;11.73;100.00
12987;BME280;58897;51.960;5.582;2023-03-13T08:14:30;99433.31;;;11.80;100.00
12987;BME280;58897;51.960;5.582;2023-03-13T08:16:57;99431.44;;;11.73;100.00
12987;BME280;58897;51.960;5.582;2023-03-13T08:19:23;99421.88;;;11.84;100.00
12987;BME280;58897;51.960;5.582;2023-03-13T08:21:50;99416.28;;;11.86;100.00
12987;BME280;58897;51.960;5.582;2023-03-13T08:24:16;99407.31;;;11.92;100.00
12987;BME280;58897;51.960;5.582;2023-03-13T08:26:42;99401.72;;;11.93;100.00
12987;BME280;58897;51.960;5.582;2023-03-13T08:29:12;99415.22;;;11.87;100.00
12987;BME280;58897;51.960;5.582;2023-03-13T08:31:47;99399.41;;;11.97;100.00
12987;BME280;58897;51.960;5.582;2023-03-13T08:34:16;99408.59;;;12.09;100.00
12987;BME280;58897;51.960;5.582;2023-03-13T08:36:43;99415.69;;;12.03;100.00
12987;BME280;58897;51.960;5.582;2023-03-13T08:39:17;99403.59;;;12.12;100.00
12987;BME280;58897;51.960;5.582;2023-03-13T08:41:44;99399.66;;;12.15;100.00
12987;BME280;58897;51.960;5.582;2023-03-13T08:44:14;99408.59;;;12.15;100.00
12987;BME280;58897;51.960;5.582;2023-03-13T08:46:41;99382.16;;;12.17;100.00
12987;BME280;58897;51.960;5.582;2023-03-13T08:49:09;99373.19;;;12.23;100.00
12987;BME280;58897;51.960;5.582;2023-03-13T08:51:37;99380.28;;;12.31;100.00
12987;BME280;58897;51.960;5.582;2023-03-13T08:54:04;99363.81;;;12.39;100.00
12987;BME280;58897;51.960;5.582;2023-03-13T08:56:31;99356.91;;;12.50;100.00
12987;BME280;58897;51.960;5.582;2023-03-13T08:58:59;99361.88;;;12.66;100.00
12987;BME280;58897;51.960;5.582;2023-03-13T09:01:29;99329.16;;;12.74;100.00
12987;BME280;58897;51.960;5.582;2023-03-13T09:03:56;99327.28;;;12.74;100.00
12987;BME280;58897;51.960;5.582;2023-03-13T09:06:23;99320.78;;;12.75;100.00
12987;BME280;58897;51.960;5.582;2023-03-13T09:08:50;99326.66;;;12.66;100.00
12987;BME280;58897;51.960;5.582;2023-03-13T09:11:18;99325.81;;;12.72;100.00
12987;BME280;58897;51.960;5.582;2023-03-13T09:13:47;99317.00;;;12.83;100.00
12987;BME280;58897;51.960;5.582;2023-03-13T09:16:19;99312.84;;;12.87;100.00
12987;BME280;58897;51.960;5.582;2023-03-13T09:18:46;99317.78;;;12.96;100.00
12987;BME280;58897;51.960;5.582;2023-03-13T09:21:21;99304.00;;;13.05;100.00
12987;BME280;58897;51.960;5.582;2023-03-13T09:23:48;99300.41;;;13.24;100.00
12987;BME280;58897;51.960;5.582;2023-03-13T09:26:17;99316.88;;;13.22;100.00
12987;BME280;58897;51.960;5.582;2023-03-13T09:28:46;99305.00;;;13.54;100.00
12987;BME280;58897;51.960;5.582;2023-03-13T09:31:15;99292.69;;;14.26;100.00
12987;BME280;58897;51.960;5.582;2023-03-13T09:33:43;99270.44;;;13.93;100.00
12987;BME280;58897;51.960;5.582;2023-03-13T09:36:10;99272.22;;;13.56;100.00
12987;BME280;58897;51.960;5.582;2023-03-13T09:38:37;99266.91;;;13.92;100.00
12987;BME280;58897;51.960;5.582;2023-03-13T09:44:08;99298.13;;;13.52;100.00
12987;BME280;58897;51.960;5.582;2023-03-13T09:46:37;99271.72;;;13.90;100.00
12987;BME280;58897;51.960;5.582;2023-03-13T09:49:40;99270.84;;;15.23;100.00
12987;BME280;58897;51.960;5.582;2023-03-13T09:52:17;99253.03;;;15.27;100.00
12987;BME280;58897;51.960;5.582;2023-03-13T09:55:04;99245.94;;;14.60;100.00
12987;BME280;58897;51.960;5.582;2023-03-13T10:00:11;99248.72;;;13.93;100.00
12987;BME280;58897;51.960;5.582;2023-03-13T10:02:55;99243.25;;;14.42;100.00
12987;BME280;58897;51.960;5.582;2023-03-13T10:05:25;99246.13;;;14.04;100.00
12987;BME280;58897;51.960;5.582;2023-03-13T10:08:09;99229.22;;;13.84;100.00
12987;BME280;58897;51.960;5.582;2023-03-13T10:13:22;99228.47;;;14.38;100.00
12987;BME280;58897;51.960;5.582;2023-03-13T10:15:58;99226.72;;;14.92;100.00
12987;BME280;58897;51.960;5.582;2023-03-13T10:18:26;99227.03;;;14.36;100.00
12987;BME280;58897;51.960;5.582;2023-03-13T10:20:57;99231.34;;;14.18;100.00
12987;BME280;58897;51.960;5.582;2023-03-13T10:25:54;99214.44;;;14.16;100.00
12987;BME280;58897;51.960;5.582;2023-03-13T10:28:20;99215.44;;;14.22;100.00
12987;BME280;58897;51.960;5.582;2023-03-13T10:30:50;99200.59;;;15.20;100.00
12987;BME280;58897;51.960;5.582;2023-03-13T10:33:23;99207.19;;;15.54;100.00
12987;BME280;58897;51.960;5.582;2023-03-13T10:36:19;99184.00;;;15.75;100.00
12987;BME280;58897;51.960;5.582;2023-03-13T10:38:50;99203.59;;;14.71;100.00
12987;BME280;58897;51.960;5.582;2023-03-13T10:41:33;99207.41;;;14.81;100.00
12987;BME280;58897;51.960;5.582;2023-03-13T10:44:06;99199.19;;;14.40;100.00
12987;BME280;58897;51.960;5.582;2023-03-13T10:46:35;99192.56;;;14.36;100.00
12987;BME280;58897;51.960;5.582;2023-03-13T10:49:14;99197.28;;;14.59;100.00
12987;BME280;58897;51.960;5.582;2023-03-13T10:51:46;99190.66;;;15.56;100.00
12987;BME280;58897;51.960;5.582;2023-03-13T10:56:46;99173.84;;;16.05;100.00
12987;BME280;58897;51.960;5.582;2023-03-13T10:59:24;99170.09;;;17.31;100.00
12987;BME280;58897;51.960;5.582;2023-03-13T11:01:53;99168.19;;;18.14;100.00
12987;BME280;58897;51.960;5.582;2023-03-13T11:04:28;99167.50;;;16.39;100.00
12987;BME280;58897;51.960;5.582;2023-03-13T11:07:15;99151.72;;;17.26;100.00
12987;BME280;58897;51.960;5.582;2023-03-13T11:09:42;99152.22;;;17.89;100.00
12987;BME280;58897;51.960;5.582;2023-03-13T11:12:16;99165.25;;;16.36;100.00
12987;BME280;58897;51.960;5.582;2023-03-13T11:14:43;99169.56;;;16.21;100.00
12987;BME280;58897;51.960;5.582;2023-03-13T11:17:29;99164.84;;;16.67;100.00
12987;BME280;58897;51.960;5.582;2023-03-13T11:20:13;99158.66;;;18.17;100.00
12987;BME280;58897;51.960;5.582;2023-03-13T11:22:54;99138.53;;;19.51;100.00
12987;BME280;58897;51.960;5.582;2023-03-13T11:25:27;99134.13;;;17.34;100.00
12987;BME280;58897;51.960;5.582;2023-03-13T11:28:19;99134.50;;;16.64;100.00
12987;BME280;58897;51.960;5.582;2023-03-13T11:31:02;99112.97;;;16.79;100.00
12987;BME280;58897;51.960;5.582;2023-03-13T11:33:46;99126.66;;;16.67;100.00
12987;BME280;58897;51.960;5.582;2023-03-13T11:36:22;99120.13;;;17.13;100.00
12987;BME280;58897;51.960;5.582;2023-03-13T11:38:54;99113.38;;;16.31;100.00
12987;BME280;58897;51.960;5.582;2023-03-13T11:44:27;99132.59;;;16.64;100.00
12987;BME280;58897;51.960;5.582;2023-03-13T11:47:19;99108.31;;;16.91;100.00
12987;BME280;58897;51.960;5.582;2023-03-13T12:01:26;99119.25;;;17.41;100.00
12987;BME280;58897;51.960;5.582;2023-03-13T12:06:55;99115.03;;;18.97;100.00
12987;BME280;58897;51.960;5.582;2023-03-13T12:09:30;99104.09;;;18.97;100.00
12987;BME280;58897;51.960;5.582;2023-03-13T12:14:56;99097.41;;;19.83;100.00
12987;BME280;58897;51.960;5.582;2023-03-13T12:20:21;99113.75;;;19.36;100.00
12987;BME280;58897;51.960;5.582;2023-03-13T12:23:18;99077.91;;;19.38;100.00
12987;BME280;58897;51.960;5.582;2023-03-13T12:28:39;99074.97;;;19.86;98.32
12987;BME280;58897;51.960;5.582;2023-03-13T12:33:47;99069.81;;;18.89;100.00
12987;BME280;58897;51.960;5.582;2023-03-13T12:36:23;99067.81;;;19.85;97.42
12987;BME280;58897;51.960;5.582;2023-03-13T12:38:56;99070.75;;;19.00;100.00
12987;BME280;58897;51.960;5.582;2023-03-13T12:43:58;99066.16;;;19.84;95.40
12987;BME280;58897;51.960;5.582;2023-03-13T12:52:22;99042.22;;;19.64;97.94
12987;BME280;58897;51.960;5.582;2023-03-13T13:00:16;99035.88;;;18.90;96.03
12987;BME280;58897;51.960;5.582;2023-03-13T13:02:45;99021.16;;;19.28;94.05
12987;BME280;58897;51.960;5.582;2023-03-13T13:05:20;99025.00;;;18.64;98.73
12987;BME280;58897;51.960;5.582;2023-03-13T13:07:54;99010.25;;;18.16;100.00
12987;BME280;58897;51.960;5.582;2023-03-13T13:10:25;99035.94;;;17.94;100.00
12987;BME280;58897;51.960;5.582;2023-03-13T13:16:00;99032.25;;;18.80;99.01
12987;BME280;58897;51.960;5.582;2023-03-13T13:18:30;99013.03;;;18.75;98.74
12987;BME280;58897;51.960;5.582;2023-03-13T13:23:36;98995.22;;;18.40;100.00
12987;BME280;58897;51.960;5.582;2023-03-13T13:28:52;99021.81;;;18.02;100.00
12987;BME280;58897;51.960;5.582;2023-03-13T13:31:55;99013.50;;;17.15;100.00
12987;BME280;58897;51.960;5.582;2023-03-13T13:36:59;99001.56;;;17.21;100.00
12987;BME280;58897;51.960;5.582;2023-03-13T13:39:39;98991.63;;;17.32;100.00
12987;BME280;58897;51.960;5.582;2023-03-13T13:47:25;98987.44;;;18.06;100.00
12987;BME280;58897;51.960;5.582;2023-03-13T13:49:54;99013.25;;;17.71;100.00
12987;BME280;58897;51.960;5.582;2023-03-13T13:52:36;99016.22;;;17.70;100.00
12987;BME280;58897;51.960;5.582;2023-03-13T13:58:01;99012.47;;;17.98;100.00
12987;BME280;58897;51.960;5.582;2023-03-13T14:00:40;99000.28;;;17.83;100.00
12987;BME280;58897;51.960;5.582;2023-03-13T14:03:23;98999.88;;;17.97;100.00
12987;BME280;58897;51.960;5.582;2023-03-13T14:06:01;98984.81;;;18.16;100.00
12987;BME280;58897;51.960;5.582;2023-03-13T14:08:31;98993.69;;;18.01;100.00
12987;BME280;58897;51.960;5.582;2023-03-13T14:11:17;99002.25;;;17.88;100.00
12987;BME280;58897;51.960;5.582;2023-03-13T14:14:16;98981.88;;;17.74;100.00
12987;BME280;58897;51.960;5.582;2023-03-13T14:16:45;98972.59;;;17.75;100.00
12987;BME280;58897;51.960;5.582;2023-03-13T14:19:28;98972.28;;;17.71;100.00
12987;BME280;58897;51.960;5.582;2023-03-13T14:21:58;98962.31;;;17.60;100.00
12987;BME280;58897;51.960;5.582;2023-03-13T14:24:25;98963.41;;;18.08;100.00
12987;BME280;58897;51.960;5.582;2023-03-13T14:26:52;98947.63;;;17.88;100.00
12987;BME280;58897;51.960;5.582;2023-03-13T14:29:19;98936.84;;;17.76;100.00
12987;BME280;58897;51.960;5.582;2023-03-13T14:31:58;98957.41;;;17.84;100.00